sensor_id;sensor_type;location;lat;lon;timestamp;pressure;altitude;pressure_sealevel;temperature;humidity
31088;BME280;17745;55.914;37.554;2022-09-20T00:02:10;97739.38;;;14.60;58.05
31088;BME280;17745;55.914;37.554;2022-09-20T00:04:38;97726.22;;;14.54;58.04
31088;BME280;17745;55.914;37.554;2022-09-20T00:07:05;97748.78;;;14.57;57.82
31088;BME280;17745;55.914;37.554;2022-09-20T00:09:33;97759.59;;;14.52;57.96
31088;BME280;17745;55.914;37.554;2022-09-20T00:12:02;97755.69;;;14.49;57.91
31088;BME280;17745;55.914;37.554;2022-09-20T00:14:35;97756.12;;;14.51;57.81
31088;BME280;17745;55.914;37.554;2022-09-20T00:17:04;97761.63;;;14.37;58.13
31088;BME280;17745;55.914;37.554;2022-09-20T00:19:31;97774.13;;;14.37;58.13
31088;BME280;17745;55.914;37.554;2022-09-20T00:22:01;97775.41;;;14.30;58.26
31088;BME280;17745;55.914;37.554;2022-09-20T00:24:31;97790.28;;;14.32;58.27
31088;BME280;17745;55.914;37.554;2022-09-20T00:27:02;97784.31;;;14.35;58.27
31088;BME280;17745;55.914;37.554;2022-09-20T00:29:33;97790.13;;;14.37;58.25
31088;BME280;17745;55.914;37.554;2022-09-20T00:32:02;97804.06;;;14.42;58.12
31088;BME280;17745;55.914;37.554;2022-09-20T00:34:32;97800.00;;;14.45;57.95
31088;BME280;17745;55.914;37.554;2022-09-20T00:37:17;97804.69;;;14.48;57.85
31088;BME280;17745;55.914;37.554;2022-09-20T00:39:54;97807.19;;;14.53;57.70
31088;BME280;17745;55.914;37.554;2022-09-20T00:42:55;97815.03;;;14.58;57.66
31088;BME280;17745;55.914;37.554;2022-09-20T00:49:54;97822.72;;;14.60;57.52
31088;BME280;17745;55.914;37.554;2022-09-20T00:52:57;97835.09;;;14.56;57.67
31088;BME280;17745;55.914;37.554;2022-09-20T00:55:48;97830.69;;;14.51;57.69
31088;BME280;17745;55.914;37.554;2022-09-20T00:58:24;97821.94;;;14.42;57.90
31088;BME280;17745;55.914;37.554;2022-09-20T01:01:09;97848.69;;;14.37;58.12
31088;BME280;17745;55.914;37.554;2022-09-20T01:03:50;97847.47;;;14.43;58.00
31088;BME280;17745;55.914;37.554;2022-09-20T01:06:39;97861.25;;;14.54;57.68
31088;BME280;17745;55.914;37.554;2022-09-20T01:09:15;97863.47;;;14.61;57.60
31088;BME280;17745;55.914;37.554;2022-09-20T01:12:08;97861.72;;;14.47;57.93
31088;BME280;17745;55.914;37.554;2022-09-20T01:14:59;97867.31;;;14.37;58.36
31088;BME280;17745;55.914;37.554;2022-09-20T01:17:32;97868.06;;;14.20;58.75
31088;BME280;17745;55.914;37.554;2022-09-20T01:20:11;97877.13;;;14.10;59.13
31088;BME280;17745;55.914;37.554;2022-09-20T01:22:56;97868.19;;;14.06;59.21
31088;BME280;17745;55.914;37.554;2022-09-20T01:26:08;97866.44;;;14.01;59.42
31088;BME280;17745;55.914;37.554;2022-09-20T01:29:06;97876.94;;;14.06;59.32
31088;BME280;17745;55.914;37.554;2022-09-20T01:31:51;97881.06;;;14.12;59.28
31088;BME280;17745;55.914;37.554;2022-09-20T01:34:45;97881.94;;;13.99;59.57
31088;BME280;17745;55.914;37.554;2022-09-20T01:37:56;97883.56;;;14.18;59.05
31088;BME280;17745;55.914;37.554;2022-09-20T01:40:34;97882.53;;;14.36;58.54
31088;BME280;17745;55.914;37.554;2022-09-20T01:43:06;97884.28;;;14.41;58.40
31088;BME280;17745;55.914;37.554;2022-09-20T01:45:41;97901.03;;;14.50;58.07
31088;BME280;17745;55.914;37.554;2022-09-20T01:48:21;97899.16;;;14.42;58.23
31088;BME280;17745;55.914;37.554;2022-09-20T01:51:26;97891.16;;;14.42;58.21
31088;BME280;17745;55.914;37.554;2022-09-20T01:54:48;97901.47;;;14.43;58.13
31088;BME280;17745;55.914;37.554;2022-09-20T01:58:05;97915.59;;;14.44;58.12
31088;BME280;17745;55.914;37.554;2022-09-20T02:46:36;97982.19;;;14.53;57.70
31088;BME280;17745;55.914;37.554;2022-09-20T02:49:32;97984.97;;;14.48;57.75
31088;BME280;17745;55.914;37.554;2022-09-20T02:52:31;97990.16;;;14.44;57.94
31088;BME280;17745;55.914;37.554;2022-09-20T02:55:26;97986.41;;;14.45;57.91
31088;BME280;17745;55.914;37.554;2022-09-20T02:58:15;98001.41;;;14.41;57.99
31088;BME280;17745;55.914;37.554;2022-09-20T03:00:53;98010.22;;;14.50;57.77
31088;BME280;17745;55.914;37.554;2022-09-20T03:03:41;98001.75;;;14.48;57.79
31088;BME280;17745;55.914;37.554;2022-09-20T03:06:22;98004.91;;;14.50;57.67
31088;BME280;17745;55.914;37.554;2022-09-20T03:09:09;98018.06;;;14.55;57.59
31088;BME280;17745;55.914;37.554;2022-09-20T03:12:52;98025.13;;;14.60;57.29
31088;BME280;17745;55.914;37.554;2022-09-20T03:16:21;98030.03;;;14.67;57.12
31088;BME280;17745;55.914;37.554;2022-09-20T03:20:12;98038.19;;;14.70;57.02
31088;BME280;17745;55.914;37.554;2022-09-20T08:57:20;98481.06;;;20.05;43.60
31088;BME280;17745;55.914;37.554;2022-09-20T09:00:15;98491.28;;;20.11;43.35
31088;BME280;17745;55.914;37.554;2022-09-20T09:02:49;98488.47;;;20.08;43.05
31088;BME280;17745;55.914;37.554;2022-09-20T09:05:35;98491.66;;;20.35;43.14
31088;BME280;17745;55.914;37.554;2022-09-20T09:08:09;98479.31;;;20.59;42.95
31088;BME280;17745;55.914;37.554;2022-09-20T09:10:49;98497.03;;;20.84;42.34
31088;BME280;17745;55.914;37.554;2022-09-20T09:13:30;98489.41;;;20.74;42.39
31088;BME280;17745;55.914;37.554;2022-09-20T09:16:05;98492.66;;;20.80;41.44
31088;BME280;17745;55.914;37.554;2022-09-20T09:18:38;98491.87;;;20.54;40.71
31088;BME280;17745;55.914;37.554;2022-09-20T09:21:09;98505.88;;;20.23;41.21
31088;BME280;17745;55.914;37.554;2022-09-20T09:23:53;98481.00;;;19.80;40.88
31088;BME280;17745;55.914;37.554;2022-09-20T09:26:36;98503.66;;;19.15;41.86
31088;BME280;17745;55.914;37.554;2022-09-20T09:29:29;98510.94;;;19.14;42.16
31088;BME280;17745;55.914;37.554;2022-09-20T09:32:17;98508.69;;;19.17;42.02
31088;BME280;17745;55.914;37.554;2022-09-20T09:34:46;98503.22;;;19.34;41.60
31088;BME280;17745;55.914;37.554;2022-09-20T09:37:25;98523.34;;;19.40;41.55
31088;BME280;17745;55.914;37.554;2022-09-20T09:40:14;98507.97;;;19.50;41.06
31088;BME280;17745;55.914;37.554;2022-09-20T09:43:19;98531.09;;;19.42;40.63
31088;BME280;17745;55.914;37.554;2022-09-20T09:46:22;98527.22;;;19.31;40.73
31088;BME280;17745;55.914;37.554;2022-09-20T09:49:07;98509.56;;;19.08;41.13
31088;BME280;17745;55.914;37.554;2022-09-20T09:51:38;98516.81;;;19.08;41.07
31088;BME280;17745;55.914;37.554;2022-09-20T09:54:15;98521.47;;;19.20;41.01
31088;BME280;17745;55.914;37.554;2022-09-20T09:57:03;98533.03;;;19.33;40.90
31088;BME280;17745;55.914;37.554;2022-09-20T09:59:50;98529.47;;;19.50;40.50
31088;BME280;17745;55.914;37.554;2022-09-20T10:05:45;98547.75;;;19.69;39.96
31088;BME280;17745;55.914;37.554;2022-09-20T10:08:29;98550.22;;;19.62;40.16
31088;BME280;17745;55.914;37.554;2022-09-20T10:11:18;98549.66;;;19.68;40.31
31088;BME280;17745;55.914;37.554;2022-09-20T10:13:57;98554.38;;;19.71;39.98
31088;BME280;17745;55.914;37.554;2022-09-20T10:17:10;98558.44;;;19.56;40.26
31088;BME280;17745;55.914;37.554;2022-09-20T10:19:54;98559.13;;;19.32;40.85
31088;BME280;17745;55.914;37.554;2022-09-20T10:22:43;98561.78;;;19.32;40.82
31088;BME280;17745;55.914;37.554;2022-09-20T10:25:38;98577.91;;;19.32;40.78
31088;BME280;17745;55.914;37.554;2022-09-20T10:28:29;98576.31;;;19.31;40.91
31088;BME280;17745;55.914;37.554;2022-09-20T10:31:38;98585.72;;;19.16;41.41
31088;BME280;17745;55.914;37.554;2022-09-20T10:34:27;98582.00;;;19.29;41.59
31088;BME280;17745;55.914;37.554;2022-09-20T10:37:00;98577.16;;;19.65;41.35
31088;BME280;17745;55.914;37.554;2022-09-20T10:39:36;98586.06;;;19.78;41.18
31088;BME280;17745;55.914;37.554;2022-09-20T10:42:32;98580.81;;;19.82;41.28
31088;BME280;17745;55.914;37.554;2022-09-20T10:45:43;98587.75;;;19.83;41.30
31088;BME280;17745;55.914;37.554;2022-09-20T10:48:32;98572.06;;;19.51;41.64
31088;BME280;17745;55.914;37.554;2022-09-20T10:51:25;98593.66;;;19.12;42.25
31088;BME280;17745;55.914;37.554;2022-09-20T10:57:42;98595.03;;;19.19;42.42
31088;BME280;17745;55.914;37.554;2022-09-20T11:00:20;98595.22;;;19.13;42.63
31088;BME280;17745;55.914;37.554;2022-09-20T11:03:07;98599.16;;;19.07;42.89
31088;BME280;17745;55.914;37.554;2022-09-20T11:05:50;98607.81;;;19.13;42.76
31088;BME280;17745;55.914;37.554;2022-09-20T11:08:53;98605.59;;;19.15;42.93
31088;BME280;17745;55.914;37.554;2022-09-20T11:11:25;98607.38;;;19.11;42.91
31088;BME280;17745;55.914;37.554;2022-09-20T11:17:28;98618.94;;;18.94;43.40
31088;BME280;17745;55.914;37.554;2022-09-20T11:20:16;98623.81;;;19.09;43.11
31088;BME280;17745;55.914;37.554;2022-09-20T11:22:52;98631.47;;;19.20;43.01
31088;BME280;17745;55.914;37.554;2022-09-20T11:25:40;98635.72;;;19.21;42.69
31088;BME280;17745;55.914;37.554;2022-09-20T11:28:14;98637.53;;;19.08;42.90
31088;BME280;17745;55.914;37.554;2022-09-20T11:30:59;98640.41;;;19.03;42.99
31088;BME280;17745;55.914;37.554;2022-09-20T11:33:47;98645.91;;;18.97;43.24
31088;BME280;17745;55.914;37.554;2022-09-20T11:36:53;98650.66;;;18.92;43.34
31088;BME280;17745;55.914;37.554;2022-09-20T11:39:40;98650.88;;;18.78;43.46
31088;BME280;17745;55.914;37.554;2022-09-20T11:42:29;98661.31;;;18.62;43.80
31088;BME280;17745;55.914;37.554;2022-09-20T11:45:10;98662.44;;;18.52;44.06
31088;BME280;17745;55.914;37.554;2022-09-20T11:48:17;98662.44;;;18.52;44.09
31088;BME280;17745;55.914;37.554;2022-09-20T12:19:35;98717.16;;;18.24;47.70
31088;BME280;17745;55.914;37.554;2022-09-20T12:22:29;98717.34;;;19.80;45.34
31088;BME280;17745;55.914;37.554;2022-09-20T12:25:35;98709.91;;;20.28;44.49
31088;BME280;17745;55.914;37.554;2022-09-20T12:28:32;98698.00;;;19.95;44.94
31088;BME280;17745;55.914;37.554;2022-09-20T12:31:36;98708.97;;;20.45;44.23
31088;BME280;17745;55.914;37.554;2022-09-20T12:34:36;98709.81;;;21.29;42.97
31088;BME280;17745;55.914;37.554;2022-09-20T12:37:28;98712.37;;;21.00;42.86
31088;BME280;17745;55.914;37.554;2022-09-20T12:40:23;98721.91;;;20.31;44.14
31088;BME280;17745;55.914;37.554;2022-09-20T12:42:57;98725.31;;;19.97;44.71
31088;BME280;17745;55.914;37.554;2022-09-20T12:45:59;98703.88;;;20.65;43.41
31088;BME280;17745;55.914;37.554;2022-09-20T12:48:42;98723.34;;;20.07;43.85
31088;BME280;17745;55.914;37.554;2022-09-20T12:51:19;98720.41;;;19.39;45.02
31088;BME280;17745;55.914;37.554;2022-09-20T12:54:10;98724.97;;;18.91;46.07
31088;BME280;17745;55.914;37.554;2022-09-20T12:57:23;98722.66;;;18.72;46.58
31088;BME280;17745;55.914;37.554;2022-09-20T13:00:00;98732.31;;;18.55;47.07
31088;BME280;17745;55.914;37.554;2022-09-20T13:02:55;98732.59;;;18.45;47.45
31088;BME280;17745;55.914;37.554;2022-09-20T13:05:35;98729.47;;;18.25;47.89
31088;BME280;17745;55.914;37.554;2022-09-20T13:08:18;98703.00;;;18.06;48.35
31088;BME280;17745;55.914;37.554;2022-09-20T13:10:57;98721.50;;;17.85;48.76
31088;BME280;17745;55.914;37.554;2022-09-20T13:13:54;98720.28;;;17.82;48.96
31088;BME280;17745;55.914;37.554;2022-09-20T13:16:48;98732.22;;;17.85;49.00
31088;BME280;17745;55.914;37.554;2022-09-20T13:19:21;98729.25;;;17.86;49.16
31088;BME280;17745;55.914;37.554;2022-09-20T13:22:26;98729.25;;;17.95;49.11
31088;BME280;17745;55.914;37.554;2022-09-20T13:25:45;98743.59;;;17.99;49.07
31088;BME280;17745;55.914;37.554;2022-09-20T13:28:53;98762.03;;;18.01;49.21
31088;BME280;17745;55.914;37.554;2022-09-20T13:38:20;98772.63;;;18.06;49.44
31088;BME280;17745;55.914;37.554;2022-09-20T14:02:58;98781.25;;;19.65;47.46
31088;BME280;17745;55.914;37.554;2022-09-20T14:05:57;98778.19;;;21.74;44.49
31088;BME280;17745;55.914;37.554;2022-09-20T14:12:31;98786.22;;;24.25;40.43
31088;BME280;17745;55.914;37.554;2022-09-20T14:15:14;98785.12;;;24.89;39.71
31088;BME280;17745;55.914;37.554;2022-09-20T14:56:32;98802.28;;;18.45;47.76
31088;BME280;17745;55.914;37.554;2022-09-20T14:59:24;98811.25;;;18.14;48.46
31088;BME280;17745;55.914;37.554;2022-09-20T15:02:07;98814.81;;;18.00;48.66
31088;BME280;17745;55.914;37.554;2022-09-20T15:04:54;98816.47;;;17.79;48.92
31088;BME280;17745;55.914;37.554;2022-09-20T15:07:40;98823.91;;;17.50;49.39
31088;BME280;17745;55.914;37.554;2022-09-20T15:10:13;98829.44;;;17.22;50.06
31088;BME280;17745;55.914;37.554;2022-09-20T15:13:13;98823.69;;;17.06;50.26
31088;BME280;17745;55.914;37.554;2022-09-20T15:16:11;98829.84;;;16.93;50.63
31088;BME280;17745;55.914;37.554;2022-09-20T15:18:58;98835.06;;;16.75;50.89
31088;BME280;17745;55.914;37.554;2022-09-20T15:21:36;98838.47;;;16.67;51.09
31088;BME280;17745;55.914;37.554;2022-09-20T15:24:19;98850.66;;;16.59;51.35
31088;BME280;17745;55.914;37.554;2022-09-20T15:26:55;98851.78;;;16.44;51.67
31088;BME280;17745;55.914;37.554;2022-09-20T15:29:29;98856.44;;;16.38;51.92
31088;BME280;17745;55.914;37.554;2022-09-20T15:32:12;98863.56;;;16.43;52.12
31088;BME280;17745;55.914;37.554;2022-09-20T15:34:40;98870.38;;;16.49;51.98
31088;BME280;17745;55.914;37.554;2022-09-20T15:37:10;98867.31;;;16.56;51.98
31088;BME280;17745;55.914;37.554;2022-09-20T15:39:42;98876.97;;;16.66;51.90
31088;BME280;17745;55.914;37.554;2022-09-20T15:42:41;98874.41;;;16.75;51.88
31088;BME280;17745;55.914;37.554;2022-09-20T15:51:45;98882.78;;;16.82;52.01
31088;BME280;17745;55.914;37.554;2022-09-20T15:54:36;98883.31;;;16.70;52.19
31088;BME280;17745;55.914;37.554;2022-09-20T15:57:05;98871.66;;;16.52;52.34
31088;BME280;17745;55.914;37.554;2022-09-20T15:59:33;98882.66;;;16.50;52.49
31088;BME280;17745;55.914;37.554;2022-09-20T16:02:01;98888.28;;;16.49;52.61
31088;BME280;17745;55.914;37.554;2022-09-20T16:15:20;98904.59;;;16.61;52.68
31088;BME280;17745;55.914;37.554;2022-09-20T16:18:06;98901.25;;;16.55;52.78
31088;BME280;17745;55.914;37.554;2022-09-20T16:21:07;98907.56;;;16.60;52.81
31088;BME280;17745;55.914;37.554;2022-09-20T16:24:10;98907.56;;;16.60;52.80
31088;BME280;17745;55.914;37.554;2022-09-20T16:26:57;98910.84;;;16.56;52.93
31088;BME280;17745;55.914;37.554;2022-09-20T16:29:46;98912.13;;;16.59;52.98
31088;BME280;17745;55.914;37.554;2022-09-20T16:35:59;98921.03;;;16.54;53.29
31088;BME280;17745;55.914;37.554;2022-09-20T16:38:29;98923.72;;;16.54;53.26
31088;BME280;17745;55.914;37.554;2022-09-20T16:41:01;98918.66;;;16.53;53.20
31088;BME280;17745;55.914;37.554;2022-09-20T16:43:49;98921.84;;;16.55;53.18
31088;BME280;17745;55.914;37.554;2022-09-20T16:47:20;98922.03;;;16.58;53.18
31088;BME280;17745;55.914;37.554;2022-09-20T16:50:28;98928.78;;;16.56;53.08
31088;BME280;17745;55.914;37.554;2022-09-20T17:07:09;98940.75;;;16.31;53.49
31088;BME280;17745;55.914;37.554;2022-09-20T17:10:04;98934.41;;;16.26;53.62
31088;BME280;17745;55.914;37.554;2022-09-20T17:13:09;98935.09;;;16.18;53.59
31088;BME280;17745;55.914;37.554;2022-09-20T17:20:49;98937.38;;;15.97;54.26
31088;BME280;17745;55.914;37.554;2022-09-20T17:27:43;98945.56;;;16.00;54.12
31088;BME280;17745;55.914;37.554;2022-09-20T17:30:42;98943.00;;;15.95;54.13
31088;BME280;17745;55.914;37.554;2022-09-20T17:33:41;98947.91;;;15.88;54.22
31088;BME280;17745;55.914;37.554;2022-09-20T17:36:42;98951.81;;;15.77;54.45
31088;BME280;17745;55.914;37.554;2022-09-20T17:39:25;98949.34;;;15.66;54.51
31088;BME280;17745;55.914;37.554;2022-09-20T17:42:24;98947.75;;;15.65;54.42
31088;BME280;17745;55.914;37.554;2022-09-20T17:48:38;98959.53;;;15.45;54.97
31088;BME280;17745;55.914;37.554;2022-09-20T17:51:45;98956.44;;;15.38;55.17
31088;BME280;17745;55.914;37.554;2022-09-20T17:54:58;98957.09;;;15.29;55.35
31088;BME280;17745;55.914;37.554;2022-09-20T17:57:35;98962.00;;;15.22;55.35
31088;BME280;17745;55.914;37.554;2022-09-20T18:00:32;98961.78;;;15.19;55.53
31088;BME280;17745;55.914;37.554;2022-09-20T18:40:59;98980.84;;;14.63;56.75
31088;BME280;17745;55.914;37.554;2022-09-20T18:44:13;98989.94;;;14.62;56.77
31088;BME280;17745;55.914;37.554;2022-09-20T18:47:00;98986.75;;;14.60;56.69
31088;BME280;17745;55.914;37.554;2022-09-20T19:29:54;98987.25;;;14.38;57.09
31088;BME280;17745;55.914;37.554;2022-09-20T19:32:39;98997.91;;;14.38;57.05
31088;BME280;17745;55.914;37.554;2022-09-20T19:35:17;99003.81;;;14.35;57.03
31088;BME280;17745;55.914;37.554;2022-09-20T19:38:08;99006.78;;;14.33;57.15
31088;BME280;17745;55.914;37.554;2022-09-20T19:41:49;99005.97;;;14.33;57.12
31088;BME280;17745;55.914;37.554;2022-09-20T19:52:53;99005.75;;;14.29;57.16
31088;BME280;17745;55.914;37.554;2022-09-20T19:55:53;99021.47;;;14.25;57.21
31088;BME280;17745;55.914;37.554;2022-09-20T20:05:40;99014.00;;;14.27;57.23
31088;BME280;17745;55.914;37.554;2022-09-20T20:09:01;99015.31;;;14.30;57.17
31088;BME280;17745;55.914;37.554;2022-09-20T20:12:06;99018.75;;;14.30;57.12
31088;BME280;17745;55.914;37.554;2022-09-20T21:05:19;99016.97;;;13.91;57.57
31088;BME280;17745;55.914;37.554;2022-09-20T21:08:11;99019.94;;;13.90;57.57
31088;BME280;17745;55.914;37.554;2022-09-20T21:10:41;99020.22;;;13.88;57.57
31088;BME280;17745;55.914;37.554;2022-09-20T21:16:49;99021.28;;;13.87;57.69
31088;BME280;17745;55.914;37.554;2022-09-20T21:33:47;99030.91;;;13.83;57.85
31088;BME280;17745;55.914;37.554;2022-09-20T21:36:31;99031.47;;;13.80;57.80
31088;BME280;17745;55.914;37.554;2022-09-20T21:39:10;99027.75;;;13.76;57.80
31088;BME280;17745;55.914;37.554;2022-09-20T21:42:05;99034.13;;;13.75;57.92
31088;BME280;17745;55.914;37.554;2022-09-20T21:45:34;99035.00;;;13.70;57.95
31088;BME280;17745;55.914;37.554;2022-09-20T21:48:21;99032.06;;;13.66;57.99
31088;BME280;17745;55.914;37.554;2022-09-20T21:53:53;99031.28;;;13.66;58.19
31088;BME280;17745;55.914;37.554;2022-09-20T21:56:39;99029.97;;;13.63;58.18
31088;BME280;17745;55.914;37.554;2022-09-20T21:59:17;99035.56;;;13.62;58.17
31088;BME280;17745;55.914;37.554;2022-09-20T22:02:04;99036.62;;;13.61;58.19
31088;BME280;17745;55.914;37.554;2022-09-20T22:04:54;99040.66;;;13.58;58.25
31088;BME280;17745;55.914;37.554;2022-09-20T22:07:45;99040.09;;;13.56;58.33
31088;BME280;17745;55.914;37.554;2022-09-20T22:29:13;99046.06;;;13.32;58.59
31088;BME280;17745;55.914;37.554;2022-09-20T22:32:12;99051.38;;;13.37;58.59
31088;BME280;17745;55.914;37.554;2022-09-20T22:34:47;99046.84;;;13.43;58.26
31088;BME280;17745;55.914;37.554;2022-09-20T22:37:17;99051.38;;;13.37;58.38
31088;BME280;17745;55.914;37.554;2022-09-20T22:39:54;99052.97;;;13.33;58.48
31088;BME280;17745;55.914;37.554;2022-09-20T22:42:52;99051.94;;;13.29;58.52
31088;BME280;17745;55.914;37.554;2022-09-20T22:57:38;99050.97;;;13.09;58.93
31088;BME280;17745;55.914;37.554;2022-09-20T23:00:53;99053.09;;;13.07;59.04
31088;BME280;17745;55.914;37.554;2022-09-20T23:04:30;99053.91;;;13.08;58.98
31088;BME280;17745;55.914;37.554;2022-09-20T23:07:42;99058.16;;;13.04;58.93
31088;BME280;17745;55.914;37.554;2022-09-20T23:10:48;99059.53;;;13.01;59.03
31088;BME280;17745;55.914;37.554;2022-09-20T23:39:10;99065.94;;;12.90;59.28
31088;BME280;17745;55.914;37.554;2022-09-20T23:42:11;99061.97;;;12.82;59.29
31088;BME280;17745;55.914;37.554;2022-09-20T23:45:13;99059.31;;;12.77;59.30
31088;BME280;17745;55.914;37.554;2022-09-20T23:48:13;99066.50;;;12.71;59.34
31088;BME280;17745;55.914;37.554;2022-09-20T23:51:18;99059.09;;;12.68;59.50
31088;BME280;17745;55.914;37.554;2022-09-20T23:54:28;99060.66;;;12.69;59.64
31088;BME280;17745;55.914;37.554;2022-09-20T23:57:14;99058.81;;;12.69;59.74
